Bargerville, Illinois
Current Conditions -  °F | °C
As of 6:15 PM on Monday 24 Nov 2014 (Local Time) from KM30 Reporting Station
Overcast Overcast  
Wind Chill:   Ceiling: 7000
Heat Index:   Visibility: 10mi
Dew Point:   Wind: 7mph
Humidity: 58%   Direction: 220°SW
Pressure: 29.92"   Gusts: NA
Location:  37.2288°N, 88.7044°W
Report Text: KM30 250015Z AUTO 22006KT 10SM OVC070 10/02 A2992 RMK AO2 T00950015
Loading
Personal Weather Stations






























Interactive Weather Map New forecast layout! Learn more

10-Day Weather Forecast

Advertisements
Track Severe Weather on mobile